Погода Санта-Элена-ди-Гоясна 2 недели

Гояс, Бразилия

24 апреля-06 мая
  • 24апреля
    Сегодня
    +21°
    +32°
    Ясно и безоблачно
    ВремяПогодаТемператураВлажностьДавлениеВетер, м/сВероятность осадков
    00:00Ясно и безоблачно+22°C72 %712 мм1.8 м/с5 %
    03:00Ясно и безоблачно+22°C76 %711 мм1.3 м/с5 %
    06:00Ясно и безоблачно+20°C80 %711 мм1.6 м/с5 %
    09:00Ясно и безоблачно+25°C64 %713 мм0.7 м/с5 %
    12:00Ясно и безоблачно+29°C49 %713 мм1.0 м/с5 %
    15:00Ясно и безоблачно+31°C43 %711 мм0.2 м/с5 %
    18:00Ясно и безоблачно+27°C63 %711 мм1.7 м/с5 %
    21:00Ясно и безоблачно+26°C64 %711 мм2.3 м/с5 %
  • 25апреля
    Четверг
    +21°
    +32°
    Небольшая облачность
    ВремяПогодаТемператураВлажностьДавлениеВетер, м/сВероятность осадков
    00:00Ясно и безоблачно+23°C77 %711 мм1.7 м/с5 %
    03:00Ясно и безоблачно+22°C78 %710 мм1.7 м/с5 %
    06:00Практически безоблачно+22°C81 %711 мм1.9 м/с5 %
    09:00Практически безоблачно+26°C66 %713 мм1.2 м/с5 %
    12:00Ясно и безоблачно+30°C49 %712 мм2.0 м/с5 %
    15:00Небольшая облачность+32°C44 %711 мм1.6 м/с5 %
    18:00Практически безоблачно+29°C58 %710 мм1.2 м/с5 %
    21:00Ясно и безоблачно+26°C65 %711 мм2.3 м/с5 %
  • 26апреля
    Пятница
    +24°
    +33°
    Ясно и безоблачно
    ВремяПогодаТемператураВлажностьДавлениеВетер, м/сВероятность осадков
    00:00Ясно и безоблачно+24°C71 %711 мм1.9 м/с5 %
    03:00Ясно и безоблачно+24°C70 %710 мм2.1 м/с5 %
    06:00Ясно и безоблачно+22°C80 %710 мм1.9 м/с5 %
    09:00Ясно и безоблачно+26°C63 %713 мм1.4 м/с5 %
    12:00Ясно и безоблачно+30°C49 %712 мм3.1 м/с5 %
    15:00Ясно и безоблачно+32°C45 %710 мм2.3 м/с5 %
    18:00Ясно и безоблачно+30°C56 %710 мм1.2 м/с5 %
    21:00Ясно и безоблачно+26°C69 %710 мм1.2 м/с5 %
  • 27апреля
    Суббота
    +21°
    +33°
    Ясно и безоблачно
    ВремяПогодаТемператураВлажностьДавлениеВетер, м/сВероятность осадков
    00:00Ясно и безоблачно+24°C75 %711 мм1.8 м/с6 %
    03:00Ясно и безоблачно+25°C68 %710 мм1.5 м/с5 %
    06:00Ясно и безоблачно+24°C69 %711 мм1.4 м/с5 %
    09:00Ясно и безоблачно+26°C64 %713 мм1.6 м/с5 %
    12:00Ясно и безоблачно+30°C49 %712 мм2.7 м/с5 %
    15:00Ясно и безоблачно+32°C45 %710 мм2.0 м/с5 %
    18:00Ясно и безоблачно+29°C58 %710 мм1.7 м/с5 %
    21:00Ясно и безоблачно+26°C66 %710 мм1.7 м/с4 %
Мы используем cookies
Соглашаюсь